Time;durP1;ratioP1;P1;durP2;ratioP2;P2;SDS_P1;SDS_P2;PMS_P1;PMS_P2;Temp;Humidity;BMP_temperature;BMP_pressure;BME280_temperature;BME280_humidity;BME280_pressure;Samples;Min_cycle;Max_cycle;Signal;HPM_P1;HPM_P2
2023/05/07 00:01:00;;;;;;;;;;;;;;;27.71;40.50;94077.84;5037993;28;8061;-60
2023/05/07 00:03:27;;;;;;;;;;;;;;;27.72;40.65;94084.84;5035662;28;9410;-60
2023/05/07 00:05:55;;;;;;;;;;;;;;;27.72;40.86;94084.84;5048363;28;9580;-60
2023/05/07 00:08:21;;;;;;;;;;;;;;;27.71;40.60;94083.34;5014074;28;7120;-60
2023/05/07 00:10:54;;;;;;;;;;;;;;;27.72;40.32;94079.31;5014090;28;7432;-60
2023/05/07 00:13:23;;;;;;;;;;;;;;;27.73;40.23;94091.88;5024094;28;7098;-60
2023/05/07 00:15:54;;;;;;;;;;;;;;;27.71;40.47;94078.56;5044550;28;7422;-60
2023/05/07 00:18:23;;;;;;;;;;;;;;;27.70;40.67;94071.56;5038998;28;6996;-60
2023/05/07 00:20:49;;;;;;;;;;;;;;;27.71;40.40;94083.34;5046868;28;7158;-61
2023/05/07 00:23:31;;;;;;;;;;;;;;;27.72;40.07;94082.06;5018139;28;9128;-60
2023/05/07 00:26:04;;;;;;;;;;;;;;;27.71;40.49;94070.25;5057657;28;9498;-61
2023/05/07 00:28:31;;;;;;;;;;;;;;;27.72;40.33;94073.78;5028155;28;9165;-60
2023/05/07 00:30:58;;;;;;;;;;;;;;;27.69;40.37;94075.59;5031241;28;9044;-60
2023/05/07 00:33:26;;;;;;;;;;;;;;;27.69;40.34;94066.56;5035291;28;8743;-60
2023/05/07 00:35:55;;;;;;;;;;;;;;;27.69;40.50;94080.38;5038507;28;7011;-60
2023/05/07 00:38:25;;;;;;;;;;;;;;;27.67;40.44;94074.63;5037130;28;7197;-60
2023/05/07 00:41:20;;;;;;;;;;;;;;;27.67;40.54;94071.84;5052794;28;7058;-60
2023/05/07 00:43:56;;;;;;;;;;;;;;;27.66;40.41;94062.09;4972611;28;7032;-60
2023/05/07 00:46:25;;;;;;;;;;;;;;;27.68;40.58;94057.53;4971022;28;9180;-60
2023/05/07 00:48:53;;;;;;;;;;;;;;;27.67;40.36;94058.78;4986481;28;7271;-60
2023/05/07 00:51:29;;;;;;;;;;;;;;;27.67;40.42;94061.56;4977153;28;9102;-60
2023/05/07 00:54:10;;;;;;;;;;;;;;;27.67;40.42;94058.03;4984972;28;7465;-60
2023/05/07 00:56:51;;;;;;;;;;;;;;;27.66;40.82;94051.78;4995517;28;7814;-60
2023/05/07 00:59:33;;;;;;;;;;;;;;;27.65;40.39;94050.28;4983508;28;8719;-60
2023/05/07 01:02:19;;;;;;;;;;;;;;;27.66;40.75;94053.81;4973395;28;9026;-60
2023/05/07 01:04:45;;;;;;;;;;;;;;;27.64;40.87;94055.06;4966322;28;8349;-60
2023/05/07 01:07:17;;;;;;;;;;;;;;;27.63;40.33;94044.56;4974784;28;9287;-60
2023/05/07 01:09:45;;;;;;;;;;;;;;;27.64;40.46;94052.31;4975160;28;9016;-60
2023/05/07 01:12:13;;;;;;;;;;;;;;;27.63;41.05;94045.31;4974759;28;7121;-60
2023/05/07 01:14:39;;;;;;;;;;;;;;;27.63;40.39;94048.06;4968806;28;8756;-60
2023/05/07 01:17:06;;;;;;;;;;;;;;;27.63;40.67;94050.09;4963053;28;9068;-60
2023/05/07 01:19:33;;;;;;;;;;;;;;;27.62;40.47;94049.34;4987183;28;7140;-60
2023/05/07 01:22:08;;;;;;;;;;;;;;;27.63;40.55;94048.06;5044909;28;9077;-60
2023/05/07 01:24:50;;;;;;;;;;;;;;;27.64;40.58;94048.81;5030497;28;7009;-60
2023/05/07 01:27:22;;;;;;;;;;;;;;;27.62;40.77;94045.84;5021268;28;9026;-60
2023/05/07 01:30:04;;;;;;;;;;;;;;;27.61;40.52;94047.13;5056963;28;9041;-60
2023/05/07 01:32:45;;;;;;;;;;;;;;;27.62;40.52;94048.63;5041036;28;7198;-60
2023/05/07 01:35:18;;;;;;;;;;;;;;;27.61;40.73;94050.63;5033882;28;9300;-60
2023/05/07 01:37:46;;;;;;;;;;;;;;;27.61;40.41;94053.38;5047962;28;8724;-61
2023/05/07 01:40:16;;;;;;;;;;;;;;;27.61;40.65;94058.16;5042525;28;8975;-61
2023/05/07 01:42:43;;;;;;;;;;;;;;;27.58;40.67;94048.16;5052659;28;7107;-60
2023/05/07 01:45:30;;;;;;;;;;;;;;;27.58;40.78;94051.69;5033972;28;7052;-60
2023/05/07 01:47:58;;;;;;;;;;;;;;;27.59;40.92;94050.41;5051084;28;6998;-61
2023/05/07 01:50:55;;;;;;;;;;;;;;;27.58;40.56;94048.16;5032018;28;9138;-60
2023/05/07 01:54:00;;;;;;;;;;;;;;;27.57;40.73;94032.88;4975239;28;8770;-60
2023/05/07 01:56:26;;;;;;;;;;;;;;;27.58;40.38;94045.41;4976704;28;9440;-61
2023/05/07 01:58:53;;;;;;;;;;;;;;;27.57;40.18;94047.44;4973815;28;9070;-61
2023/05/07 02:01:21;;;;;;;;;;;;;;;27.58;40.58;94045.41;4964198;28;9086;-60
2023/05/07 02:03:49;;;;;;;;;;;;;;;27.58;40.72;94050.94;4958455;28;9015;-61
2023/05/07 02:06:17;;;;;;;;;;;;;;;27.57;40.65;94047.44;4971815;28;7272;-64
2023/05/07 02:08:43;;;;;;;;;;;;;;;27.58;40.85;94050.94;4969385;28;7226;-64
2023/05/07 02:11:09;;;;;;;;;;;;;;;27.56;40.96;94045.94;4967808;28;7202;-64
2023/05/07 02:13:47;;;;;;;;;;;;;;;27.53;40.64;94055.28;4974135;28;7273;-64
2023/05/07 02:16:44;;;;;;;;;;;;;;;27.55;40.84;94050.00;4986805;28;7060;-64
2023/05/07 02:19:21;;;;;;;;;;;;;;;27.52;40.63;94056.56;4976104;28;7985;-64
2023/05/07 02:21:49;;;;;;;;;;;;;;;27.50;40.48;94053.59;4989371;28;7262;-64
2023/05/07 02:24:33;;;;;;;;;;;;;;;27.52;40.63;94056.56;4984602;28;7286;-64
2023/05/07 02:27:23;;;;;;;;;;;;;;;27.52;40.82;94062.09;4985824;28;7181;-64
2023/05/07 02:29:49;;;;;;;;;;;;;;;27.50;40.87;94067.41;5000608;28;7314;-64
2023/05/07 02:32:25;;;;;;;;;;;;;;;27.51;40.79;94063.38;5041391;28;7250;-64
2023/05/07 02:34:55;;;;;;;;;;;;;;;27.51;40.48;94060.59;5038112;28;8730;-64
2023/05/07 02:37:24;;;;;;;;;;;;;;;27.49;40.34;94057.63;5050310;28;7225;-64
2023/05/07 02:39:55;;;;;;;;;;;;;;;27.48;40.72;94071.97;5041500;28;7021;-64
2023/05/07 02:42:29;;;;;;;;;;;;;;;27.49;40.67;94071.44;5041641;28;8808;-64
2023/05/07 02:45:06;;;;;;;;;;;;;;;27.48;40.64;94072.72;5035476;28;9323;-64
2023/05/07 02:47:46;;;;;;;;;;;;;;;27.49;40.33;94073.47;5031913;28;7279;-64
2023/05/07 02:50:49;;;;;;;;;;;;;;;27.49;40.79;94076.97;5049368;28;9087;-64
2023/05/07 02:53:17;;;;;;;;;;;;;;;27.47;40.86;94070.50;5012545;28;7060;-64
2023/05/07 02:56:18;;;;;;;;;;;;;;;27.47;40.86;94076.03;5006448;28;7038;-64
2023/05/07 02:58:57;;;;;;;;;;;;;;;27.46;40.52;94069.00;4982991;28;7738;-64
2023/05/07 03:01:33;;;;;;;;;;;;;;;27.42;40.80;94065.81;4992981;28;6999;-64
2023/05/07 03:04:10;;;;;;;;;;;;;;;27.41;40.95;94072.59;4998388;28;9156;-64
2023/05/07 03:06:45;;;;;;;;;;;;;;;27.42;40.27;94065.81;4991529;28;7288;-64
2023/05/07 03:09:30;;;;;;;;;;;;;;;27.43;40.76;94061.78;4973465;28;7100;-64
2023/05/07 03:11:57;;;;;;;;;;;;;;;27.43;40.77;94064.53;4985866;28;7270;-64
2023/05/07 03:14:58;;;;;;;;;;;;;;;27.42;40.67;94074.84;4964938;28;7193;-64
2023/05/07 03:17:26;;;;;;;;;;;;;;;27.39;40.85;94062.09;4968546;28;7145;-64
2023/05/07 03:20:07;;;;;;;;;;;;;;;27.40;40.75;94069.13;4954199;28;9281;-65
2023/05/07 03:23:03;;;;;;;;;;;;;;;27.39;40.78;94070.38;4964448;28;7259;-64
2023/05/07 03:25:34;;;;;;;;;;;;;;;27.39;40.76;94072.41;4934412;29;8779;-64
2023/05/07 03:28:08;;;;;;;;;;;;;;;27.39;40.38;94064.88;4930099;29;7147;-64
2023/05/07 03:30:34;;;;;;;;;;;;;;;27.39;41.12;94075.16;4906666;29;7383;-64
2023/05/07 03:33:02;;;;;;;;;;;;;;;27.38;40.71;94074.41;4903604;29;7252;-64
2023/05/07 03:35:30;;;;;;;;;;;;;;;27.39;40.76;94067.63;4912705;29;9149;-64
2023/05/07 03:38:12;;;;;;;;;;;;;;;27.40;40.69;94068.38;4905017;29;8293;-64
2023/05/07 03:40:52;;;;;;;;;;;;;;;27.37;40.99;94078.47;4900134;29;7103;-64
2023/05/07 03:43:28;;;;;;;;;;;;;;;27.37;40.69;94074.94;4912965;29;9021;-64
2023/05/07 03:46:04;;;;;;;;;;;;;;;27.34;40.82;94076.72;4905612;29;7027;-64
2023/05/07 03:48:56;;;;;;;;;;;;;;;27.36;40.87;94079.72;4896966;29;8784;-64
2023/05/07 03:51:22;;;;;;;;;;;;;;;27.38;40.85;94079.22;4931504;28;9082;-64
2023/05/07 03:54:05;;;;;;;;;;;;;;;27.38;41.48;94079.22;4956779;28;7284;-64
2023/05/07 03:57:03;;;;;;;;;;;;;;;27.38;40.77;94084.72;4956128;28;7228;-64
2023/05/07 03:59:58;;;;;;;;;;;;;;;27.37;40.87;94083.22;4949699;28;7276;-64
2023/05/07 04:02:43;;;;;;;;;;;;;;;27.36;41.34;94084.53;4957946;28;6999;-64
2023/05/07 04:05:20;;;;;;;;;;;;;;;27.33;40.69;94078.00;4959184;28;8732;-64
2023/05/07 04:08:01;;;;;;;;;;;;;;;27.34;40.79;94085.00;4978343;28;9012;-64
2023/05/07 04:10:29;;;;;;;;;;;;;;;27.34;40.75;94084.28;4975650;28;9378;-64
2023/05/07 04:13:36;;;;;;;;;;;;;;;27.32;40.96;94087.56;4952430;28;7258;-64
2023/05/07 04:16:19;;;;;;;;;;;;;;;27.32;40.98;94092.31;4919533;29;7338;-64
2023/05/07 04:18:59;;;;;;;;;;;;;;;27.31;40.74;94086.06;4923179;29;9061;-64
2023/05/07 04:21:47;;;;;;;;;;;;;;;27.30;41.22;94084.56;4922242;29;9351;-64
2023/05/07 04:24:35;;;;;;;;;;;;;;;27.29;41.15;94077.59;4902698;29;9065;-64
2023/05/07 04:27:01;;;;;;;;;;;;;;;27.30;40.98;94081.81;4924370;29;9340;-65
2023/05/07 04:30:04;;;;;;;;;;;;;;;27.31;40.96;94093.63;4926334;29;8164;-63
2023/05/07 04:32:32;;;;;;;;;;;;;;;27.27;40.86;94093.94;4930944;28;7295;-63
2023/05/07 04:34:58;;;;;;;;;;;;;;;27.24;41.01;94099.75;4918041;28;6935;-64
2023/05/07 04:37:26;;;;;;;;;;;;;;;27.18;41.18;94108.16;4914808;29;7504;-64
2023/05/07 04:39:55;;;;;;;;;;;;;;;27.16;41.38;94109.94;4970004;28;7029;-65
2023/05/07 04:42:21;;;;;;;;;;;;;;;27.17;40.87;94114.19;4994308;28;7297;-65
2023/05/07 04:44:47;;;;;;;;;;;;;;;27.17;40.89;94114.19;4969666;28;7403;-65
2023/05/07 04:47:13;;;;;;;;;;;;;;;27.17;40.33;94111.41;5014602;28;7397;-65
2023/05/07 04:49:49;;;;;;;;;;;;;;;27.17;40.25;94111.41;5045862;28;7514;-65
2023/05/07 04:52:16;;;;;;;;;;;;;;;27.16;40.83;94113.47;5055943;28;8709;-65
2023/05/07 04:54:47;;;;;;;;;;;;;;;27.12;40.52;94112.28;5041647;28;9439;-65
2023/05/07 04:57:23;;;;;;;;;;;;;;;27.10;40.63;94121.06;5021546;28;8087;-65
2023/05/07 05:00:04;;;;;;;;;;;;;;;27.10;40.80;94120.34;5024703;28;7222;-65
2023/05/07 05:02:29;;;;;;;;;;;;;;;27.10;40.91;94123.09;5051986;28;9082;-65
2023/05/07 05:04:58;;;;;;;;;;;;;;;27.10;41.10;94132.09;5044497;28;8932;-65
2023/05/07 05:07:24;;;;;;;;;;;;;;;27.10;41.07;94137.63;5043258;28;9019;-65
2023/05/07 05:09:50;;;;;;;;;;;;;;;27.07;40.88;94130.41;5033760;28;9168;-65
2023/05/07 05:12:16;;;;;;;;;;;;;;;27.07;41.32;94133.19;5035611;28;9020;-65
2023/05/07 05:14:42;;;;;;;;;;;;;;;27.09;41.31;94141.69;5020793;28;7177;-65
2023/05/07 05:17:08;;;;;;;;;;;;;;;27.08;40.56;94134.66;5043811;28;9182;-64
2023/05/07 05:19:34;;;;;;;;;;;;;;;27.09;41.49;94130.63;5037695;28;7140;-65
2023/05/07 05:22:03;;;;;;;;;;;;;;;27.08;41.50;94134.66;5040989;28;7087;-65
2023/05/07 05:24:30;;;;;;;;;;;;;;;27.07;41.32;94141.47;5038339;28;7096;-64
2023/05/07 05:27:01;;;;;;;;;;;;;;;27.08;41.30;94139.44;5024664;28;9233;-65
2023/05/07 05:29:31;;;;;;;;;;;;;;;27.08;41.26;94140.19;5050402;28;7047;-64
2023/05/07 05:31:59;;;;;;;;;;;;;;;27.09;41.37;94143.69;5030008;28;7024;-65
2023/05/07 05:34:25;;;;;;;;;;;;;;;27.06;41.96;94142.72;5032761;28;7467;-65
2023/05/07 05:36:56;;;;;;;;;;;;;;;27.05;41.47;94144.00;5044684;28;8771;-64
2023/05/07 05:39:23;;;;;;;;;;;;;;;27.07;41.28;94146.22;5048003;28;9074;-65
2023/05/07 05:41:51;;;;;;;;;;;;;;;27.05;41.65;94149.53;5044149;28;8950;-64
2023/05/07 05:44:17;;;;;;;;;;;;;;;27.04;41.50;94141.75;5029656;28;7271;-64
2023/05/07 05:46:54;;;;;;;;;;;;;;;27.04;41.86;94145.25;5023765;28;9120;-64
2023/05/07 05:49:21;;;;;;;;;;;;;;;27.05;41.69;94146.75;5040566;28;7298;-65
2023/05/07 05:51:48;;;;;;;;;;;;;;;27.02;41.31;94147.81;5017722;28;7184;-64
2023/05/07 05:54:19;;;;;;;;;;;;;;;27.04;41.44;94150.78;5037139;28;7292;-64
2023/05/07 05:56:45;;;;;;;;;;;;;;;27.06;41.40;94151.00;5044394;28;7045;-65
2023/05/07 05:59:12;;;;;;;;;;;;;;;27.03;41.68;94152.06;5035350;28;9027;-64
2023/05/07 06:01:38;;;;;;;;;;;;;;;27.06;41.52;94161.28;5032740;28;7292;-65
2023/05/07 06:04:07;;;;;;;;;;;;;;;27.06;41.79;94161.28;5046566;28;9029;-64
2023/05/07 06:06:33;;;;;;;;;;;;;;;27.09;41.55;94169.28;5040625;28;7028;-63
2023/05/07 06:08:58;;;;;;;;;;;;;;;27.08;41.63;94175.34;5031277;28;8864;-64
2023/05/07 06:11:27;;;;;;;;;;;;;;;27.08;41.83;94172.56;5033266;28;8142;-64
2023/05/07 06:13:54;;;;;;;;;;;;;;;27.12;41.37;94173.72;5025662;28;7259;-64
2023/05/07 06:16:21;;;;;;;;;;;;;;;27.13;41.18;94180.00;5048472;28;7080;-64
2023/05/07 06:18:49;;;;;;;;;;;;;;;27.15;41.05;94186.50;5038934;28;7253;-64
2023/05/07 06:21:18;;;;;;;;;;;;;;;27.14;40.90;94190.53;5034783;28;7065;-64
2023/05/07 06:23:44;;;;;;;;;;;;;;;27.14;41.43;94187.78;5050811;28;8791;-65
2023/05/07 06:26:12;;;;;;;;;;;;;;;27.12;41.00;94184.78;5039066;28;8947;-64
2023/05/07 06:28:39;;;;;;;;;;;;;;;27.12;41.07;94190.31;5041577;28;7345;-63
2023/05/07 06:31:16;;;;;;;;;;;;;;;27.12;41.38;94197.84;5039451;28;9089;-65
2023/05/07 06:33:45;;;;;;;;;;;;;;;27.12;41.33;94201.34;5033985;28;7014;-64
2023/05/07 06:36:31;;;;;;;;;;;;;;;27.15;41.03;94197.53;5032556;28;7087;-65
2023/05/07 06:38:58;;;;;;;;;;;;;;;27.15;41.30;94200.31;5027269;28;7223;-65
2023/05/07 06:41:44;;;;;;;;;;;;;;;27.15;41.00;94197.53;5045987;28;8909;-65
2023/05/07 06:44:10;;;;;;;;;;;;;;;27.14;41.34;94198.06;5053204;28;9097;-65
2023/05/07 06:46:37;;;;;;;;;;;;;;;27.15;41.69;94205.81;5032120;28;7110;-64
2023/05/07 06:49:10;;;;;;;;;;;;;;;27.18;41.42;94209.56;5039289;28;8564;-64
2023/05/07 06:51:36;;;;;;;;;;;;;;;27.17;40.83;94202.53;5055532;28;9060;-65
2023/05/07 06:54:15;;;;;;;;;;;;;;;27.18;41.05;94202.03;5026571;28;7333;-65
2023/05/07 06:57:05;;;;;;;;;;;;;;;27.17;41.04;94206.03;5027280;28;9123;-65
2023/05/07 06:59:57;;;;;;;;;;;;;;;27.17;41.27;94208.06;5022188;28;7592;-64
2023/05/07 07:02:24;;;;;;;;;;;;;;;27.17;41.07;94206.03;5031867;28;8397;-64
2023/05/07 07:04:55;;;;;;;;;;;;;;;27.12;41.23;94190.31;5034533;28;8728;-64
2023/05/07 07:07:26;;;;;;;;;;;;;;;27.16;41.11;94201.81;5042478;28;8786;-63
2023/05/07 07:10:01;;;;;;;;;;;;;;;27.12;41.54;94212.38;5021286;28;7050;-62
2023/05/07 07:12:28;;;;;;;;;;;;;;;27.15;40.99;94213.34;5035546;28;7336;-63
2023/05/07 07:14:57;;;;;;;;;;;;;;;27.16;41.23;94212.84;5051455;28;7183;-63
2023/05/07 07:17:23;;;;;;;;;;;;;;;27.14;41.56;94220.16;5029102;28;7506;-64
2023/05/07 07:19:59;;;;;;;;;;;;;;;27.16;41.70;94228.66;5039240;28;9192;-63
2023/05/07 07:22:31;;;;;;;;;;;;;;;27.16;41.39;94223.91;5047148;28;7123;-63
2023/05/07 07:25:04;;;;;;;;;;;;;;;27.14;41.54;94220.16;5049359;28;8630;-63
2023/05/07 07:27:32;;;;;;;;;;;;;;;27.13;41.24;94227.69;5047245;28;7271;-63
2023/05/07 07:30:04;;;;;;;;;;;;;;;27.13;41.36;94224.94;5041295;28;9079;-63
2023/05/07 07:32:40;;;;;;;;;;;;;;;27.13;41.99;94224.19;5027253;28;7115;-63
2023/05/07 07:35:12;;;;;;;;;;;;;;;27.11;41.26;94227.47;5034723;28;9131;-63
2023/05/07 07:37:37;;;;;;;;;;;;;;;27.12;41.27;94233.75;5033224;28;7301;-63
2023/05/07 07:40:06;;;;;;;;;;;;;;;27.13;41.54;94229.69;5035910;28;7225;-63
2023/05/07 07:42:33;;;;;;;;;;;;;;;27.13;41.16;94229.69;5040119;28;9220;-63
2023/05/07 07:45:18;;;;;;;;;;;;;;;27.11;41.54;94233.00;5045281;28;8746;-63
2023/05/07 07:47:53;;;;;;;;;;;;;;;27.11;41.55;94230.22;5044914;28;7279;-63
2023/05/07 07:50:24;;;;;;;;;;;;;;;27.14;41.49;94231.97;5045553;28;7110;-63
2023/05/07 07:53:03;;;;;;;;;;;;;;;27.12;41.71;94217.91;5054827;28;7032;-63
2023/05/07 07:55:44;;;;;;;;;;;;;;;27.12;42.15;94228.94;5047531;28;9027;-64
2023/05/07 07:58:21;;;;;;;;;;;;;;;27.15;42.96;94235.44;5039125;28;9002;-64
2023/05/07 08:00:50;;;;;;;;;;;;;;;27.18;43.14;94240.69;5050879;28;9750;-64
2023/05/07 08:03:19;;;;;;;;;;;;;;;27.18;42.78;94237.91;5038375;28;7363;-64
2023/05/07 08:06:03;;;;;;;;;;;;;;;27.19;42.27;94239.41;5022801;28;9444;-63
2023/05/07 08:08:30;;;;;;;;;;;;;;;27.18;42.04;94237.91;5038730;28;9182;-63
2023/05/07 08:10:59;;;;;;;;;;;;;;;27.18;42.09;94234.41;5031535;28;7018;-63
2023/05/07 08:13:27;;;;;;;;;;;;;;;27.18;42.82;94232.41;5030624;28;7342;-62
2023/05/07 08:15:58;;;;;;;;;;;;;;;27.17;42.63;94230.91;5048649;28;7094;-63
2023/05/07 08:18:29;;;;;;;;;;;;;;;27.17;42.62;94230.91;5043044;28;8297;-63
2023/05/07 08:20:58;;;;;;;;;;;;;;;27.19;43.34;94236.63;5046972;28;8953;-64
2023/05/07 08:23:23;;;;;;;;;;;;;;;27.18;42.80;94237.91;5024420;28;7286;-65
2023/05/07 08:25:51;;;;;;;;;;;;;;;27.18;43.36;94237.91;5036255;28;8743;-64
2023/05/07 08:28:35;;;;;;;;;;;;;;;27.21;43.22;94239.63;5040248;28;9032;-64
2023/05/07 08:31:02;;;;;;;;;;;;;;;27.21;43.21;94236.84;5033058;28;7044;-64
2023/05/07 08:33:48;;;;;;;;;;;;;;;27.18;43.33;94237.91;5032356;28;9180;-64
2023/05/07 08:36:34;;;;;;;;;;;;;;;27.23;43.20;94237.06;5028003;28;9291;-63
2023/05/07 08:39:01;;;;;;;;;;;;;;;27.26;43.65;94240.81;5036531;28;9030;-64
2023/05/07 08:41:27;;;;;;;;;;;;;;;27.31;43.48;94231.69;5027850;28;7170;-62
2023/05/07 08:44:24;;;;;;;;;;;;;;;27.35;43.44;94243.19;5044394;28;7446;-64
2023/05/07 08:47:02;;;;;;;;;;;;;;;27.37;43.09;94240.66;5014153;28;7625;-63
2023/05/07 08:49:41;;;;;;;;;;;;;;;27.38;43.52;94251.16;5004927;28;7342;-64
2023/05/07 08:52:08;;;;;;;;;;;;;;;27.40;43.39;94243.13;4996545;28;9185;-64
2023/05/07 08:54:44;;;;;;;;;;;;;;;27.41;43.36;94250.13;5011047;28;9265;-64
2023/05/07 08:57:12;;;;;;;;;;;;;;;27.42;43.65;94250.88;5022300;28;7900;-64
2023/05/07 08:59:42;;;;;;;;;;;;;;;27.45;42.83;94247.81;5015610;28;7058;-65
2023/05/07 09:02:24;;;;;;;;;;;;;;;27.47;43.18;94247.28;5016827;28;9392;-65
2023/05/07 09:05:04;;;;;;;;;;;;;;;27.47;43.17;94242.50;5024654;28;7126;-65
2023/05/07 09:07:39;;;;;;;;;;;;;;;27.48;43.19;94238.47;4998830;28;7261;-65
2023/05/07 09:10:35;;;;;;;;;;;;;;;27.50;42.71;94238.69;5000156;28;8988;-65
2023/05/07 09:13:20;;;;;;;;;;;;;;;27.51;42.66;94231.16;4982545;28;9451;-65
2023/05/07 09:16:10;;;;;;;;;;;;;;;27.51;42.37;94239.44;4973002;28;7466;-64
2023/05/07 09:18:41;;;;;;;;;;;;;;;27.47;42.18;94236.97;4959796;28;7219;-64
2023/05/07 09:21:42;;;;;;;;;;;;;;;27.51;42.37;94237.41;4981361;28;8866;-64
2023/05/07 09:24:20;;;;;;;;;;;;;;;27.52;42.40;94238.16;4905614;29;8969;-64
2023/05/07 09:27:22;;;;;;;;;;;;;;;27.52;42.01;94229.88;4898033;29;8731;-64
2023/05/07 09:29:49;;;;;;;;;;;;;;;27.52;41.70;94238.91;4844796;29;9063;-65
2023/05/07 09:32:22;;;;;;;;;;;;;;;27.53;42.02;94234.13;4834312;29;7293;-65
2023/05/07 09:34:48;;;;;;;;;;;;;;;27.52;42.11;94232.63;4839932;29;7040;-65
2023/05/07 09:37:26;;;;;;;;;;;;;;;27.52;41.93;94232.63;4842770;29;9508;-65
2023/05/07 09:39:54;;;;;;;;;;;;;;;27.51;41.52;94225.63;4848384;29;7111;-65
2023/05/07 09:43:04;;;;;;;;;;;;;;;27.52;42.07;94229.88;4861762;29;9014;-64
2023/05/07 09:45:51;;;;;;;;;;;;;;;27.51;41.95;94229.13;4837550;29;7539;-64
2023/05/07 09:48:29;;;;;;;;;;;;;;;27.50;42.22;94224.88;4853461;29;7112;-64
2023/05/07 09:51:18;;;;;;;;;;;;;;;27.51;42.10;94229.13;4902813;29;7231;-64
2023/05/07 09:53:48;;;;;;;;;;;;;;;27.54;41.97;94224.56;4891109;29;7092;-64
2023/05/07 09:56:21;;;;;;;;;;;;;;;27.54;41.69;94228.06;4898703;29;7267;-64
2023/05/07 09:59:01;;;;;;;;;;;;;;;27.55;42.16;94232.34;4901426;28;7296;-64
2023/05/07 10:01:43;;;;;;;;;;;;;;;27.56;42.29;94225.53;4926117;29;7085;-65
2023/05/07 10:04:14;;;;;;;;;;;;;;;27.55;41.92;94220.53;4952432;28;9255;-64
2023/05/07 10:07:09;;;;;;;;;;;;;;;27.55;41.65;94215.75;4987877;28;9314;-64
2023/05/07 10:09:59;;;;;;;;;;;;;;;27.55;41.69;94213.00;4917265;29;7059;-64
2023/05/07 10:12:40;;;;;;;;;;;;;;;27.55;41.46;94210.22;4938863;28;7720;-65
2023/05/07 10:15:25;;;;;;;;;;;;;;;27.58;41.57;94208.41;4928633;28;7488;-64
2023/05/07 10:18:09;;;;;;;;;;;;;;;27.55;41.72;94207.47;4919589;29;7038;-65
2023/05/07 10:20:37;;;;;;;;;;;;;;;27.56;41.54;94205.44;4936754;28;9062;-65
2023/05/07 10:23:23;;;;;;;;;;;;;;;27.56;41.67;94200.66;4964756;28;9358;-64
2023/05/07 10:26:02;;;;;;;;;;;;;;;27.56;41.83;94206.19;4953042;28;9357;-64
2023/05/07 10:28:43;;;;;;;;;;;;;;;27.54;41.86;94205.97;4988590;28;8952;-64
2023/05/07 10:32:05;;;;;;;;;;;;;;;27.57;41.69;94206.94;4965153;28;7064;-65
2023/05/07 10:34:39;;;;;;;;;;;;;;;27.55;41.99;94198.44;4989080;28;8902;-65
2023/05/07 10:37:06;;;;;;;;;;;;;;;27.54;41.70;94183.88;4975488;28;7307;-65
2023/05/07 10:39:52;;;;;;;;;;;;;;;27.57;41.48;94187.59;4968370;28;9065;-65
2023/05/07 10:42:18;;;;;;;;;;;;;;;27.58;41.37;94181.53;4966055;28;7272;-65
2023/05/07 10:44:44;;;;;;;;;;;;;;;27.58;41.42;94173.25;4965325;28;8783;-66
2023/05/07 10:47:12;;;;;;;;;;;;;;;27.57;41.43;94180.06;5047481;28;7028;-66
2023/05/07 10:49:41;;;;;;;;;;;;;;;27.60;41.42;94178.97;5025596;28;7123;-66
2023/05/07 10:52:20;;;;;;;;;;;;;;;27.63;40.80;94172.41;5044876;28;8662;-66
2023/05/07 10:54:47;;;;;;;;;;;;;;;27.64;41.45;94164.88;5042753;28;8487;-66
2023/05/07 10:57:28;;;;;;;;;;;;;;;27.63;41.46;94172.41;5020033;28;7566;-65
2023/05/07 10:59:54;;;;;;;;;;;;;;;27.62;41.97;94181.25;5027053;28;6870;-65
2023/05/07 11:02:20;;;;;;;;;;;;;;;27.63;41.55;94177.19;5032507;28;9250;-66
2023/05/07 11:05:19;;;;;;;;;;;;;;;27.64;41.74;94173.88;5036636;28;7221;-66
2023/05/07 11:07:55;;;;;;;;;;;;;;;27.66;41.59;94164.34;5038375;28;7060;-66
2023/05/07 11:10:21;;;;;;;;;;;;;;;27.68;41.29;94156.25;5028970;28;9068;-66
2023/05/07 11:12:52;;;;;;;;;;;;;;;27.68;41.29;94153.50;5040809;28;9132;-66
2023/05/07 11:15:44;;;;;;;;;;;;;;;27.70;40.60;94150.94;5051798;28;9642;-66
2023/05/07 11:18:17;;;;;;;;;;;;;;;27.70;41.28;94142.66;5045955;28;9339;-65
2023/05/07 11:20:51;;;;;;;;;;;;;;;27.70;41.18;94148.94;5038837;28;7280;-65
2023/05/07 11:23:47;;;;;;;;;;;;;;;27.70;41.33;94140.63;5024793;28;9151;-65
2023/05/07 11:26:26;;;;;;;;;;;;;;;27.69;41.26;94144.66;5062387;28;8979;-65
2023/05/07 11:29:01;;;;;;;;;;;;;;;27.71;41.30;94135.88;5025676;28;7265;-66
2023/05/07 11:31:38;;;;;;;;;;;;;;;27.72;40.77;94140.09;5054179;28;7479;-66
2023/05/07 11:34:07;;;;;;;;;;;;;;;27.70;41.01;94134.34;5048093;28;7260;-66
2023/05/07 11:36:35;;;;;;;;;;;;;;;27.70;40.94;94132.34;5026185;28;7031;-66
2023/05/07 11:39:02;;;;;;;;;;;;;;;27.69;40.82;94130.13;5034794;28;7107;-66
2023/05/07 11:41:42;;;;;;;;;;;;;;;27.68;40.88;94131.38;5048672;28;9759;-66
2023/05/07 11:44:08;;;;;;;;;;;;;;;27.67;40.88;94127.13;5045087;28;9044;-65
2023/05/07 11:46:36;;;;;;;;;;;;;;;27.67;40.82;94127.13;5024421;28;9459;-65
2023/05/07 11:49:09;;;;;;;;;;;;;;;27.68;40.60;94123.09;5021898;28;7026;-65
2023/05/07 11:51:56;;;;;;;;;;;;;;;27.71;40.71;94127.56;5035406;28;7913;-65
2023/05/07 11:54:34;;;;;;;;;;;;;;;27.70;41.14;94129.59;5021576;28;7041;-65
2023/05/07 11:57:37;;;;;;;;;;;;;;;27.72;40.64;94123.53;5028209;28;8722;-65
2023/05/07 12:00:38;;;;;;;;;;;;;;;27.74;40.58;94123.72;4980818;28;8726;-67
2023/05/07 12:03:25;;;;;;;;;;;;;;;27.78;40.68;94121.38;4943942;28;9039;-66
2023/05/07 12:05:52;;;;;;;;;;;;;;;27.79;41.02;94128.41;4948297;28;7133;-67
2023/05/07 12:08:41;;;;;;;;;;;;;;;27.79;40.77;94131.94;4931014;28;7216;-66
2023/05/07 12:11:36;;;;;;;;;;;;;;;27.78;40.81;94132.44;4931442;28;9057;-67
2023/05/07 12:14:04;;;;;;;;;;;;;;;27.77;40.87;94133.72;4913237;29;7286;-66
2023/05/07 12:16:31;;;;;;;;;;;;;;;27.75;41.03;94134.28;4919634;29;9072;-66
2023/05/07 12:19:17;;;;;;;;;;;;;;;27.75;40.81;94136.28;4916720;29;7464;-67
2023/05/07 12:22:19;;;;;;;;;;;;;;;27.79;41.16;94129.16;4899662;29;7282;-66
2023/05/07 12:24:49;;;;;;;;;;;;;;;27.77;41.18;94131.72;4835142;29;7262;-66
2023/05/07 12:27:28;;;;;;;;;;;;;;;27.80;40.89;94127.13;4829300;29;8360;-66
2023/05/07 12:30:04;;;;;;;;;;;;;;;27.82;40.87;94130.13;4826126;29;8207;-66
2023/05/07 12:32:36;;;;;;;;;;;;;;;27.81;40.74;94131.38;4826184;29;9058;-66
2023/05/07 12:35:44;;;;;;;;;;;;;;;27.82;40.89;94127.38;4838227;29;7733;-66
2023/05/07 12:38:44;;;;;;;;;;;;;;;27.82;40.65;94133.63;4843258;29;7221;-66
2023/05/07 12:41:12;;;;;;;;;;;;;;;27.83;40.60;94132.34;4902300;23;9157;-89
2023/05/07 12:43:55;;;;;;;;;;;;;;;27.86;40.42;94130.56;5023838;28;8764;-89
2023/05/07 12:46:23;;;;;;;;;;;;;;;27.84;40.60;94133.09;5032508;28;9317;-89
2023/05/07 12:48:52;;;;;;;;;;;;;;;27.88;41.07;94130.75;5015649;28;9056;-89
2023/05/07 12:51:18;;;;;;;;;;;;;;;27.85;40.87;94129.03;5019755;28;9247;-89
2023/05/07 12:53:45;;;;;;;;;;;;;;;27.84;40.52;94124.81;5029072;28;8934;-88
2023/05/07 12:56:22;;;;;;;;;;;;;;;27.89;40.56;94132.22;5032560;28;8985;-89
2023/05/07 12:58:51;;;;;;;;;;;;;;;27.88;41.18;94128.00;5031256;28;8571;-88
2023/05/07 13:01:23;;;;;;;;;;;;;;;27.89;40.79;94135.75;5030240;28;8857;-88
2023/05/07 13:03:51;;;;;;;;;;;;;;;27.84;40.55;94120.00;5032563;28;7041;-89
2023/05/07 13:06:18;;;;;;;;;;;;;;;27.86;40.41;94130.56;5017110;28;7377;-88
2023/05/07 13:08:56;;;;;;;;;;;;;;;27.84;39.73;94120.00;5026817;28;7013;-88
2023/05/07 13:11:24;;;;;;;;;;;;;;;27.86;40.50;94117.44;5025174;28;9298;-88
2023/05/07 13:14:10;;;;;;;;;;;;;;;27.87;40.16;94115.44;5020571;28;8974;-88
2023/05/07 13:17:14;;;;;;;;;;;;;;;27.86;40.25;94111.94;5030054;28;7279;-88
2023/05/07 13:19:51;;;;;;;;;;;;;;;27.86;40.41;94113.97;4965829;28;8436;-88
2023/05/07 13:22:19;;;;;;;;;;;;;;;27.87;40.40;94101.63;4955278;28;9179;-89
2023/05/07 13:25:02;;;;;;;;;;;;;;;27.82;40.06;94088.66;4955720;28;8968;-88
2023/05/07 13:27:30;;;;;;;;;;;;;;;27.86;40.93;94092.56;4957749;28;8672;-88
2023/05/07 13:30:08;;;;;;;;;;;;;;;27.84;40.25;94089.59;4958740;28;7038;-89
2023/05/07 13:32:36;;;;;;;;;;;;;;;27.86;40.65;94102.91;4963244;28;9011;-88
2023/05/07 13:35:07;;;;;;;;;;;;;;;27.80;40.65;94083.66;4944780;28;7092;-88
2023/05/07 13:37:34;;;;;;;;;;;;;;;27.81;40.61;94084.41;4947510;28;7237;-88
2023/05/07 13:40:01;;;;;;;;;;;;;;;27.81;40.27;94073.34;4957128;28;9042;-89